createdAt,value
2019-05-07T00:00:03.898Z,6.53
2019-05-07T00:02:49.347Z,6.83
2019-05-07T00:05:34.601Z,6.67
2019-05-07T00:08:19.392Z,6.75
2019-05-07T00:11:04.261Z,6.67
2019-05-07T00:13:48.932Z,5.97
2019-05-07T00:16:33.865Z,6.85
2019-05-07T00:19:18.666Z,6.40
2019-05-07T00:22:03.599Z,6.25
2019-05-07T00:24:48.368Z,6.53
2019-05-07T00:27:33.209Z,6.37
2019-05-07T00:30:18.222Z,6.55
2019-05-07T00:33:03.018Z,6.75
2019-05-07T00:35:49.588Z,6.72
2019-05-07T00:38:36.469Z,7.28
2019-05-07T00:41:35.465Z,6.95
2019-05-07T00:44:22.106Z,7.22
2019-05-07T00:47:07.051Z,6.92
2019-05-07T00:49:52.255Z,6.85
2019-05-07T00:52:37.486Z,6.50
2019-05-07T00:55:22.813Z,6.45
2019-05-07T00:58:07.831Z,5.83
2019-05-07T01:00:53.235Z,6.60
2019-05-07T01:03:38.470Z,6.42
2019-05-07T01:06:26.415Z,6.67
2019-05-07T01:09:12.156Z,6.40
2019-05-07T01:11:56.871Z,6.47
2019-05-07T01:14:42.071Z,6.40
2019-05-07T01:17:26.949Z,6.22
2019-05-07T01:20:12.573Z,5.95
2019-05-07T01:22:58.203Z,6.08
2019-05-07T01:25:43.218Z,5.65
2019-05-07T01:28:28.419Z,6.67
2019-05-07T01:31:13.187Z,6.17
2019-05-07T01:33:59.965Z,6.12
2019-05-07T01:36:44.801Z,5.95
2019-05-07T01:39:29.621Z,6.00
2019-05-07T01:42:14.521Z,5.85
2019-05-07T01:44:59.326Z,5.97
2019-05-07T01:47:44.352Z,6.20
2019-05-07T01:50:32.267Z,5.85
2019-05-07T01:53:17.353Z,6.58
2019-05-07T01:56:03.213Z,5.87
2019-05-07T01:58:48.410Z,6.17
2019-05-07T02:01:35.844Z,6.10
2019-05-07T02:04:27.926Z,6.03
2019-05-07T02:07:14.871Z,6.33
2019-05-07T02:10:02.795Z,6.08
2019-05-07T02:12:48.395Z,5.78
2019-05-07T02:15:33.186Z,5.97
2019-05-07T02:18:17.967Z,5.65
2019-05-07T02:21:03.299Z,5.60
2019-05-07T02:23:48.207Z,6.10
2019-05-07T02:26:34.056Z,6.28
2019-05-07T02:29:18.894Z,6.10
2019-05-07T02:32:04.908Z,5.50
2019-05-07T02:34:50.066Z,4.97
2019-05-07T02:37:49.865Z,6.17
2019-05-07T02:40:25.741Z,5.65
2019-05-07T02:43:13.677Z,5.33
2019-05-07T02:46:17.410Z,5.40
2019-05-07T02:48:53.667Z,5.62
2019-05-07T02:51:43.219Z,5.28
2019-05-07T02:54:32.900Z,5.92
2019-05-07T02:57:17.870Z,5.47
2019-05-07T03:00:05.000Z,5.95
2019-05-07T03:02:53.057Z,5.70
2019-05-07T03:05:37.590Z,6.15
2019-05-07T03:08:26.994Z,5.12
2019-05-07T03:11:09.134Z,5.83
2019-05-07T03:13:54.040Z,5.97
2019-05-07T03:16:44.167Z,5.80
2019-05-07T03:19:27.033Z,5.50
2019-05-07T03:22:13.949Z,6.03
2019-05-07T03:25:03.408Z,5.40
2019-05-07T03:27:47.414Z,6.08
2019-05-07T03:30:37.199Z,5.15
2019-05-07T03:33:30.227Z,5.58
2019-05-07T03:36:17.151Z,5.62
2019-05-07T03:39:03.488Z,5.83
2019-05-07T03:41:48.968Z,6.15
2019-05-07T03:44:44.521Z,6.20
2019-05-07T03:47:38.998Z,6.53
2019-05-07T03:50:24.894Z,6.30
2019-05-07T03:53:09.658Z,5.70
2019-05-07T03:55:54.493Z,5.40
2019-05-07T03:58:39.257Z,6.28
2019-05-07T04:01:24.248Z,5.80
2019-05-07T04:04:09.258Z,5.83
2019-05-07T04:06:54.038Z,6.00
2019-05-07T04:09:39.041Z,6.05
2019-05-07T04:12:24.226Z,5.47
2019-05-07T04:15:09.554Z,6.17
2019-05-07T04:17:54.727Z,5.75
2019-05-07T04:20:43.165Z,6.20
2019-05-07T04:23:26.339Z,5.42
2019-05-07T04:26:15.945Z,5.80
2019-05-07T04:29:05.536Z,4.85
2019-05-07T04:31:49.850Z,5.25
2019-05-07T04:34:53.485Z,5.40
2019-05-07T04:37:38.602Z,4.85
2019-05-07T04:40:24.212Z,5.53
2019-05-07T04:43:09.485Z,8.10
2019-05-07T04:46:08.039Z,6.58
2019-05-07T04:48:53.118Z,6.37
2019-05-07T04:51:43.532Z,5.40
2019-05-07T04:54:28.751Z,5.65
2019-05-07T04:57:18.185Z,6.95
2019-05-07T05:00:04.540Z,5.85
2019-05-07T05:02:53.078Z,6.00
2019-05-07T05:05:38.499Z,6.35
2019-05-07T05:08:23.644Z,7.78
2019-05-07T05:11:12.585Z,6.80
2019-05-07T05:13:57.000Z,6.67
2019-05-07T05:16:42.490Z,7.92
2019-05-07T05:19:27.862Z,7.67
2019-05-07T05:22:23.598Z,6.47
2019-05-07T05:25:28.302Z,7.30
2019-05-07T05:28:13.676Z,6.97
2019-05-07T05:31:00.733Z,7.12
2019-05-07T05:33:45.866Z,7.60
2019-05-07T05:36:32.765Z,6.58
2019-05-07T05:39:17.450Z,6.35
2019-05-07T05:42:04.350Z,5.78
2019-05-07T05:44:49.482Z,5.97
2019-05-07T05:47:34.580Z,6.25
2019-05-07T05:50:19.219Z,5.87
2019-05-07T05:53:06.068Z,6.12
2019-05-07T05:55:52.817Z,5.20
2019-05-07T05:58:39.652Z,5.20
2019-05-07T06:01:43.342Z,5.37
2019-05-07T06:04:35.827Z,5.10
2019-05-07T06:07:23.078Z,5.87
2019-05-07T06:10:15.596Z,11.20
2019-05-07T06:13:17.804Z,5.50
2019-05-07T06:16:07.131Z,5.53
2019-05-07T06:18:53.926Z,5.97
2019-05-07T06:21:58.674Z,6.03
2019-05-07T06:24:48.461Z,6.37
2019-05-07T06:27:33.143Z,5.03
2019-05-07T06:30:18.769Z,5.22
2019-05-07T06:33:04.081Z,5.83
2019-05-07T06:35:48.925Z,5.78
2019-05-07T06:38:38.436Z,5.47
2019-05-07T06:41:26.685Z,5.85
2019-05-07T06:44:13.464Z,5.85
2019-05-07T06:46:58.629Z,5.58
2019-05-07T06:49:43.810Z,5.05
2019-05-07T06:52:28.586Z,5.35
2019-05-07T06:55:13.759Z,5.78
2019-05-07T06:57:58.806Z,5.53
2019-05-07T07:00:45.832Z,4.97
2019-05-07T07:03:35.323Z,5.10
2019-05-07T07:06:25.472Z,5.30
2019-05-07T07:09:22.270Z,4.85
2019-05-07T07:12:12.886Z,5.53
2019-05-07T07:14:58.275Z,5.42
2019-05-07T07:17:43.478Z,5.30
2019-05-07T07:20:32.445Z,5.35
2019-05-07T07:23:17.203Z,5.15
2019-05-07T07:26:03.167Z,5.12
2019-05-07T07:28:48.224Z,4.92
2019-05-07T07:31:34.904Z,4.72
2019-05-07T07:34:22.561Z,4.87
2019-05-07T07:37:23.842Z,4.95
2019-05-07T07:40:22.291Z,4.80
2019-05-07T07:43:07.378Z,4.70
2019-05-07T07:45:52.878Z,5.05
2019-05-07T07:48:37.747Z,4.58
2019-05-07T07:51:37.298Z,4.85
2019-05-07T07:54:09.735Z,4.60
2019-05-07T07:57:02.404Z,4.20
2019-05-07T07:59:49.298Z,4.70
2019-05-07T08:02:36.127Z,4.17
2019-05-07T08:05:21.914Z,5.05
2019-05-07T08:08:07.033Z,4.85
2019-05-07T08:10:52.199Z,4.80
2019-05-07T08:13:37.042Z,5.20
2019-05-07T08:16:22.342Z,6.83
2019-05-07T08:19:21.380Z,5.10
2019-05-07T08:21:54.745Z,5.08
2019-05-07T08:24:39.430Z,4.95
2019-05-07T08:27:25.412Z,5.20
2019-05-07T08:30:12.408Z,5.40
2019-05-07T08:32:59.177Z,5.12
2019-05-07T08:35:45.662Z,5.20
2019-05-07T08:38:32.799Z,5.35
2019-05-07T08:41:22.353Z,4.83
2019-05-07T08:44:12.356Z,4.47
2019-05-07T08:46:57.701Z,4.85
2019-05-07T08:49:43.468Z,4.65
2019-05-07T08:52:28.670Z,5.00
2019-05-07T08:55:13.685Z,4.58
2019-05-07T08:57:59.049Z,4.70
2019-05-07T09:00:45.157Z,4.72
2019-05-07T09:03:43.171Z,4.30
2019-05-07T09:06:34.328Z,3.98
2019-05-07T09:09:22.042Z,4.22
2019-05-07T09:12:06.430Z,3.70
2019-05-07T09:14:52.969Z,3.75
2019-05-07T09:17:38.275Z,3.87
2019-05-07T09:20:23.078Z,4.15
2019-05-07T09:23:07.720Z,4.65
2019-05-07T09:25:52.649Z,4.20
2019-05-07T09:28:54.507Z,3.90
2019-05-07T09:31:52.536Z,3.77
2019-05-07T09:34:41.582Z,4.00
2019-05-07T09:37:32.450Z,3.75
2019-05-07T09:40:17.673Z,4.70
2019-05-07T09:43:03.024Z,4.33
2019-05-07T09:45:48.141Z,4.35
2019-05-07T09:48:33.878Z,4.47
2019-05-07T09:51:19.576Z,4.70
2019-05-07T09:54:04.218Z,3.75
2019-05-07T09:56:49.194Z,3.83
2019-05-07T09:59:34.365Z,4.40
2019-05-07T10:02:19.299Z,4.58
2019-05-07T10:05:05.173Z,4.20
2019-05-07T10:07:52.487Z,4.10
2019-05-07T10:10:37.559Z,3.55
2019-05-07T10:13:33.474Z,3.87
2019-05-07T10:16:35.856Z,4.20
2019-05-07T10:19:22.233Z,3.20
2019-05-07T10:22:07.333Z,3.30
2019-05-07T10:24:52.581Z,3.55
2019-05-07T10:27:39.317Z,3.30
2019-05-07T10:30:24.329Z,3.62
2019-05-07T10:33:09.270Z,3.65
2019-05-07T10:35:54.450Z,3.08
2019-05-07T10:38:39.124Z,3.30
2019-05-07T10:41:24.120Z,3.40
2019-05-07T10:44:11.884Z,3.27
2019-05-07T10:47:15.525Z,3.50
2019-05-07T10:50:17.731Z,3.55
2019-05-07T10:53:03.145Z,3.37
2019-05-07T10:55:48.303Z,3.22
2019-05-07T10:58:33.002Z,3.50
2019-05-07T11:01:22.426Z,3.42
2019-05-07T11:04:07.565Z,3.10
2019-05-07T11:06:52.452Z,3.80
2019-05-07T11:09:37.598Z,3.65
2019-05-07T11:12:22.911Z,3.55
2019-05-07T11:15:09.390Z,4.33
2019-05-07T11:17:56.274Z,3.92
2019-05-07T11:20:49.893Z,3.80
2019-05-07T11:23:29.153Z,3.98
2019-05-07T11:26:14.105Z,3.40
2019-05-07T11:28:59.032Z,3.08
2019-05-07T11:31:43.838Z,3.35
2019-05-07T11:34:32.616Z,3.37
2019-05-07T11:37:17.594Z,3.50
2019-05-07T11:40:04.000Z,3.00
2019-05-07T11:43:03.017Z,2.77
2019-05-07T11:45:54.025Z,2.72
2019-05-07T11:48:38.879Z,3.00
2019-05-07T11:51:34.935Z,3.00
2019-05-07T11:54:19.983Z,2.75
2019-05-07T11:57:05.122Z,3.00
2019-05-07T11:59:51.617Z,2.85
2019-05-07T12:02:38.242Z,2.98
2019-05-07T12:05:28.078Z,3.00
2019-05-07T12:08:13.216Z,3.15
2019-05-07T12:10:58.105Z,2.98
2019-05-07T12:13:42.936Z,3.00
2019-05-07T12:16:27.750Z,2.95
2019-05-07T12:19:16.316Z,2.72
2019-05-07T12:22:02.634Z,3.00
2019-05-07T12:24:47.925Z,2.67
2019-05-07T12:27:33.033Z,3.12
2019-05-07T12:30:37.717Z,3.12
2019-05-07T12:33:32.475Z,3.02
2019-05-07T12:36:18.548Z,3.08
2019-05-07T12:39:06.023Z,3.20
2019-05-07T12:41:52.541Z,3.15
2019-05-07T12:44:37.391Z,3.33
2019-05-07T12:47:22.564Z,3.05
2019-05-07T12:50:08.812Z,3.08
2019-05-07T12:52:58.403Z,3.40
2019-05-07T12:55:51.817Z,2.90
2019-05-07T12:58:36.805Z,3.15
2019-05-07T13:01:32.812Z,2.72
2019-05-07T13:04:37.909Z,3.02
2019-05-07T13:07:24.965Z,3.17
2019-05-07T13:10:10.137Z,2.60
2019-05-07T13:12:55.120Z,2.98
2019-05-07T13:15:43.092Z,2.70
2019-05-07T13:18:26.823Z,2.90
2019-05-07T13:21:11.998Z,2.83
2019-05-07T13:23:56.887Z,2.98
2019-05-07T13:26:42.739Z,2.70
2019-05-07T13:29:27.498Z,2.40
2019-05-07T13:32:12.995Z,2.65
2019-05-07T13:34:58.785Z,2.55
2019-05-07T13:37:51.745Z,2.50
2019-05-07T13:40:42.311Z,2.90
2019-05-07T13:43:29.266Z,2.87
2019-05-07T13:46:15.155Z,3.30
2019-05-07T13:49:02.088Z,3.50
2019-05-07T13:51:59.786Z,3.02
2019-05-07T13:54:35.356Z,3.33
2019-05-07T13:57:22.532Z,3.22
2019-05-07T14:00:12.818Z,2.90
2019-05-07T14:02:58.295Z,2.80
2019-05-07T14:05:43.850Z,3.45
2019-05-07T14:08:32.033Z,3.17
2019-05-07T14:11:17.878Z,2.70
2019-05-07T14:14:03.088Z,3.17
2019-05-07T14:16:48.081Z,2.95
2019-05-07T14:19:33.192Z,2.70
2019-05-07T14:22:19.320Z,2.75
2019-05-07T14:25:05.262Z,3.67
2019-05-07T14:27:50.050Z,3.70
2019-05-07T14:30:34.818Z,2.83
2019-05-07T14:33:36.801Z,2.87
2019-05-07T14:36:42.516Z,2.40
2019-05-07T14:39:27.177Z,2.65
2019-05-07T14:42:14.014Z,3.10
2019-05-07T14:44:59.129Z,2.62
2019-05-07T14:47:44.720Z,3.08
2019-05-07T14:50:30.313Z,2.87
2019-05-07T14:53:15.118Z,2.65
2019-05-07T14:56:00.251Z,3.30
2019-05-07T14:58:45.324Z,4.95
2019-05-07T15:01:30.373Z,4.53
2019-05-07T15:04:15.529Z,4.17
2019-05-07T15:07:02.429Z,4.20
2019-05-07T15:09:47.809Z,5.03
2019-05-07T15:12:33.031Z,4.05
2019-05-07T15:15:18.607Z,4.15
2019-05-07T15:18:08.314Z,3.62
2019-05-07T15:20:53.672Z,3.33
2019-05-07T15:23:42.289Z,4.15
2019-05-07T15:26:27.319Z,4.08
2019-05-07T15:29:13.295Z,3.27
2019-05-07T15:31:59.987Z,3.02
2019-05-07T15:34:44.961Z,5.35
2019-05-07T15:37:32.173Z,3.02
2019-05-07T15:40:17.682Z,2.95
2019-05-07T15:43:02.611Z,3.50
2019-05-07T15:45:47.627Z,3.22
2019-05-07T15:48:32.767Z,2.80
2019-05-07T15:51:17.549Z,3.20
2019-05-07T15:54:03.581Z,2.83
2019-05-07T15:56:48.413Z,3.10
2019-05-07T15:59:33.246Z,3.12
2019-05-07T16:02:22.815Z,3.55
2019-05-07T16:05:08.613Z,3.72
2019-05-07T16:07:54.634Z,3.33
2019-05-07T16:10:39.561Z,3.60
2019-05-07T16:13:26.279Z,2.92
2019-05-07T16:16:11.563Z,3.15
2019-05-07T16:19:04.593Z,2.98
2019-05-07T16:21:50.858Z,3.15
2019-05-07T16:24:35.884Z,2.83
2019-05-07T16:27:22.435Z,2.80
2019-05-07T16:30:08.249Z,2.83
2019-05-07T16:32:55.428Z,3.27
2019-05-07T16:35:42.336Z,2.55
2019-05-07T16:38:27.061Z,3.37
2019-05-07T16:41:13.592Z,3.40
2019-05-07T16:43:58.872Z,3.83
2019-05-07T16:46:43.696Z,3.83
2019-05-07T16:49:28.468Z,3.33
2019-05-07T16:52:13.291Z,2.55
2019-05-07T16:54:58.198Z,2.85
2019-05-07T16:57:58.869Z,3.10
2019-05-07T17:00:46.422Z,3.05
2019-05-07T17:03:33.280Z,2.80
2019-05-07T17:06:17.853Z,2.90
2019-05-07T17:09:06.257Z,2.70
2019-05-07T17:11:52.787Z,3.67
2019-05-07T17:14:37.461Z,3.33
2019-05-07T17:17:22.490Z,2.95
2019-05-07T17:20:08.384Z,3.33
2019-05-07T17:22:54.377Z,3.00
2019-05-07T17:25:39.367Z,2.92
2019-05-07T17:28:24.149Z,3.35
2019-05-07T17:31:08.934Z,3.37
2019-05-07T17:33:54.230Z,2.90
2019-05-07T17:36:41.910Z,3.45
2019-05-07T17:39:26.475Z,3.95
2019-05-07T17:42:11.871Z,3.52
2019-05-07T17:44:56.693Z,3.30
2019-05-07T17:47:42.461Z,3.83
2019-05-07T17:50:35.630Z,3.40
2019-05-07T17:53:22.407Z,3.08
2019-05-07T17:56:07.273Z,3.17
2019-05-07T17:58:52.305Z,3.15
2019-05-07T18:01:50.099Z,3.30
2019-05-07T18:04:50.477Z,3.98
2019-05-07T18:07:24.385Z,3.60
2019-05-07T18:10:09.435Z,3.40
2019-05-07T18:12:55.447Z,3.80
2019-05-07T18:15:42.629Z,4.08
2019-05-07T18:18:27.252Z,3.87
2019-05-07T18:21:12.579Z,4.00
2019-05-07T18:24:16.469Z,4.05
2019-05-07T18:26:58.441Z,3.58
2019-05-07T18:29:43.186Z,3.55
2019-05-07T18:32:32.291Z,3.42
2019-05-07T18:35:16.598Z,3.83
2019-05-07T18:38:02.623Z,3.58
2019-05-07T18:40:47.714Z,3.67
2019-05-07T18:43:33.191Z,3.70
2019-05-07T18:46:18.345Z,4.00
2019-05-07T18:49:03.505Z,4.25
2019-05-07T18:51:48.672Z,4.08
2019-05-07T18:54:33.423Z,6.40
2019-05-07T18:57:18.550Z,7.20
2019-05-07T19:00:36.695Z,5.65
2019-05-07T19:03:22.004Z,5.53
2019-05-07T19:06:07.042Z,4.65
2019-05-07T19:08:52.662Z,4.47
2019-05-07T19:11:39.183Z,5.00
2019-05-07T19:14:23.800Z,4.28
2019-05-07T19:17:09.398Z,3.90
2019-05-07T19:19:54.366Z,4.00
2019-05-07T19:22:39.462Z,3.85
2019-05-07T19:25:24.933Z,4.90
2019-05-07T19:28:12.769Z,4.47
2019-05-07T19:30:57.428Z,4.10
2019-05-07T19:33:42.394Z,4.47
2019-05-07T19:36:27.801Z,5.75
2019-05-07T19:39:12.999Z,6.05
2019-05-07T19:41:58.380Z,6.12
2019-05-07T19:44:43.541Z,5.47
2019-05-07T19:47:28.388Z,5.12
2019-05-07T19:50:13.951Z,4.50
2019-05-07T19:52:58.975Z,4.62
2019-05-07T19:56:03.822Z,4.42
2019-05-07T19:58:49.296Z,4.20
2019-05-07T20:01:36.233Z,4.12
2019-05-07T20:04:21.267Z,4.12
2019-05-07T20:07:06.044Z,4.22
2019-05-07T20:09:52.468Z,4.30
2019-05-07T20:12:37.729Z,4.17
2019-05-07T20:15:29.419Z,4.20
2019-05-07T20:18:14.285Z,5.37
2019-05-07T20:20:59.337Z,5.80
2019-05-07T20:23:44.547Z,6.15
2019-05-07T20:26:29.389Z,6.20
2019-05-07T20:29:14.646Z,5.62
2019-05-07T20:31:59.831Z,5.58
2019-05-07T20:34:45.306Z,5.75
2019-05-07T20:37:32.425Z,5.33
2019-05-07T20:40:17.395Z,4.95
2019-05-07T20:43:02.573Z,7.53
2019-05-07T20:45:47.803Z,8.30
2019-05-07T20:48:32.740Z,10.05
2019-05-07T20:51:17.969Z,11.15
2019-05-07T20:54:07.497Z,10.28
2019-05-07T20:56:54.843Z,9.95
2019-05-07T20:59:40.153Z,10.75
2019-05-07T21:02:25.428Z,6.53
2019-05-07T21:05:10.309Z,5.40
2019-05-07T21:07:55.403Z,5.87
2019-05-07T21:10:42.440Z,6.10
2019-05-07T21:13:31.511Z,5.85
2019-05-07T21:16:13.930Z,5.60
2019-05-07T21:18:58.610Z,6.17
2019-05-07T21:21:43.397Z,6.85
2019-05-07T21:24:28.238Z,6.87
2019-05-07T21:27:12.875Z,6.00
2019-05-07T21:29:57.866Z,6.08
2019-05-07T21:32:42.741Z,5.22
2019-05-07T21:35:27.782Z,5.10
2019-05-07T21:38:12.810Z,5.90
2019-05-07T21:40:57.978Z,5.12
2019-05-07T21:43:46.082Z,5.20
2019-05-07T21:46:29.930Z,5.20
2019-05-07T21:49:14.789Z,4.17
2019-05-07T21:52:01.745Z,4.50
2019-05-07T21:54:48.523Z,4.20
2019-05-07T21:57:38.660Z,5.08
2019-05-07T22:00:32.697Z,4.55
2019-05-07T22:03:20.145Z,5.65
2019-05-07T22:06:05.341Z,4.90
2019-05-07T22:08:50.010Z,5.22
2019-05-07T22:11:34.786Z,5.95
2019-05-07T22:14:19.534Z,6.08
2019-05-07T22:17:04.932Z,5.28
2019-05-07T22:19:52.338Z,6.10
2019-05-07T22:22:36.730Z,5.37
2019-05-07T22:25:22.173Z,4.67
2019-05-07T22:28:09.146Z,5.28
2019-05-07T22:30:58.762Z,5.45
2019-05-07T22:33:48.550Z,5.33
2019-05-07T22:36:33.197Z,6.17
2019-05-07T22:39:36.977Z,6.05
2019-05-07T22:42:24.085Z,6.10
2019-05-07T22:45:12.116Z,6.62
2019-05-07T22:47:57.501Z,8.03
2019-05-07T22:50:44.062Z,6.65
2019-05-07T22:53:29.260Z,6.45
2019-05-07T22:56:14.219Z,7.05
2019-05-07T22:58:58.881Z,6.30
2019-05-07T23:01:43.735Z,5.60
2019-05-07T23:04:28.714Z,5.65
2019-05-07T23:07:13.548Z,5.42
2019-05-07T23:09:58.702Z,5.05
2019-05-07T23:12:43.445Z,4.72
2019-05-07T23:15:28.289Z,5.83
2019-05-07T23:18:13.135Z,4.83
2019-05-07T23:20:58.298Z,4.30
2019-05-07T23:23:43.080Z,5.83
2019-05-07T23:26:28.012Z,5.53
2019-05-07T23:29:12.746Z,6.30
2019-05-07T23:31:57.520Z,9.18
2019-05-07T23:34:42.399Z,6.92
2019-05-07T23:37:27.213Z,5.85
2019-05-07T23:40:16.715Z,5.80
2019-05-07T23:43:03.805Z,5.62
2019-05-07T23:45:48.696Z,5.28
2019-05-07T23:48:33.581Z,5.67
2019-05-07T23:51:18.180Z,5.28
2019-05-07T23:54:03.595Z,5.10
2019-05-07T23:57:04.485Z,4.90
2019-05-07T23:59:35.440Z,5.05
